sensor_id;sensor_type;location;lat;lon;timestamp;P1;durP1;ratioP1;P2;durP2;ratioP2
28774;SDS011;15926;51.348;6.596;2022-07-10T00:00:37;1.25;;;0.70;;
28774;SDS011;15926;51.348;6.596;2022-07-10T00:03:04;4.55;;;0.90;;
28774;SDS011;15926;51.348;6.596;2022-07-10T00:05:30;4.40;;;0.90;;
28774;SDS011;15926;51.348;6.596;2022-07-10T00:07:57;2.97;;;0.90;;
28774;SDS011;15926;51.348;6.596;2022-07-10T00:10:23;2.83;;;0.68;;
28774;SDS011;15926;51.348;6.596;2022-07-10T00:12:50;3.47;;;0.88;;
28774;SDS011;15926;51.348;6.596;2022-07-10T00:15:16;3.15;;;0.90;;
28774;SDS011;15926;51.348;6.596;2022-07-10T00:17:43;1.63;;;0.70;;
28774;SDS011;15926;51.348;6.596;2022-07-10T00:20:09;2.92;;;1.27;;
28774;SDS011;15926;51.348;6.596;2022-07-10T00:22:36;2.67;;;0.88;;
28774;SDS011;15926;51.348;6.596;2022-07-10T00:25:06;3.15;;;0.73;;
28774;SDS011;15926;51.348;6.596;2022-07-10T00:27:32;1.25;;;0.80;;
28774;SDS011;15926;51.348;6.596;2022-07-10T00:29:58;1.67;;;0.70;;
28774;SDS011;15926;51.348;6.596;2022-07-10T00:32:24;1.75;;;0.90;;
28774;SDS011;15926;51.348;6.596;2022-07-10T00:34:51;8.30;;;1.00;;
28774;SDS011;15926;51.348;6.596;2022-07-10T00:37:17;5.88;;;0.80;;
28774;SDS011;15926;51.348;6.596;2022-07-10T00:39:43;1.45;;;0.90;;
28774;SDS011;15926;51.348;6.596;2022-07-10T00:42:10;3.63;;;1.00;;
28774;SDS011;15926;51.348;6.596;2022-07-10T00:44:37;8.82;;;1.63;;
28774;SDS011;15926;51.348;6.596;2022-07-10T00:47:06;3.47;;;1.02;;
28774;SDS011;15926;51.348;6.596;2022-07-10T00:49:33;4.82;;;1.02;;
28774;SDS011;15926;51.348;6.596;2022-07-10T00:51:59;3.65;;;0.95;;
28774;SDS011;15926;51.348;6.596;2022-07-10T00:54:26;5.32;;;0.88;;
28774;SDS011;15926;51.348;6.596;2022-07-10T00:56:52;2.75;;;0.77;;
28774;SDS011;15926;51.348;6.596;2022-07-10T00:59:18;3.72;;;0.73;;
28774;SDS011;15926;51.348;6.596;2022-07-10T01:01:45;5.03;;;1.50;;
28774;SDS011;15926;51.348;6.596;2022-07-10T01:04:11;4.85;;;1.00;;
28774;SDS011;15926;51.348;6.596;2022-07-10T01:06:37;4.40;;;0.80;;
28774;SDS011;15926;51.348;6.596;2022-07-10T01:09:03;2.05;;;0.82;;
28774;SDS011;15926;51.348;6.596;2022-07-10T01:11:30;2.72;;;0.70;;
28774;SDS011;15926;51.348;6.596;2022-07-10T01:13:57;3.83;;;1.10;;
28774;SDS011;15926;51.348;6.596;2022-07-10T01:16:23;9.63;;;1.83;;
28774;SDS011;15926;51.348;6.596;2022-07-10T01:18:49;4.93;;;1.40;;
28774;SDS011;15926;51.348;6.596;2022-07-10T01:21:28;6.18;;;1.00;;
28774;SDS011;15926;51.348;6.596;2022-07-10T01:26:20;4.68;;;1.63;;
28774;SDS011;15926;51.348;6.596;2022-07-10T01:28:48;2.97;;;1.00;;
28774;SDS011;15926;51.348;6.596;2022-07-10T01:31:15;2.95;;;1.00;;
28774;SDS011;15926;51.348;6.596;2022-07-10T01:33:41;7.00;;;0.82;;
28774;SDS011;15926;51.348;6.596;2022-07-10T01:36:07;2.15;;;1.55;;
28774;SDS011;15926;51.348;6.596;2022-07-10T01:38:33;4.57;;;1.30;;
28774;SDS011;15926;51.348;6.596;2022-07-10T01:40:59;7.20;;;1.65;;
28774;SDS011;15926;51.348;6.596;2022-07-10T01:43:25;5.68;;;1.08;;
28774;SDS011;15926;51.348;6.596;2022-07-10T01:45:51;3.22;;;0.90;;
28774;SDS011;15926;51.348;6.596;2022-07-10T01:48:17;2.13;;;1.00;;
28774;SDS011;15926;51.348;6.596;2022-07-10T01:50:43;4.13;;;1.20;;
28774;SDS011;15926;51.348;6.596;2022-07-10T01:53:09;2.70;;;0.85;;
28774;SDS011;15926;51.348;6.596;2022-07-10T01:55:36;12.48;;;1.50;;
28774;SDS011;15926;51.348;6.596;2022-07-10T01:58:02;5.95;;;1.35;;
28774;SDS011;15926;51.348;6.596;2022-07-10T02:00:28;5.68;;;1.15;;
28774;SDS011;15926;51.348;6.596;2022-07-10T02:02:54;2.55;;;0.80;;
28774;SDS011;15926;51.348;6.596;2022-07-10T02:05:38;5.03;;;1.23;;
28774;SDS011;15926;51.348;6.596;2022-07-10T02:08:04;7.97;;;0.93;;
28774;SDS011;15926;51.348;6.596;2022-07-10T02:10:31;7.18;;;1.30;;
28774;SDS011;15926;51.348;6.596;2022-07-10T02:12:57;4.18;;;1.10;;
28774;SDS011;15926;51.348;6.596;2022-07-10T02:15:23;3.65;;;1.75;;
28774;SDS011;15926;51.348;6.596;2022-07-10T02:17:49;7.07;;;1.10;;
28774;SDS011;15926;51.348;6.596;2022-07-10T02:20:15;2.10;;;1.20;;
28774;SDS011;15926;51.348;6.596;2022-07-10T02:22:41;3.42;;;1.10;;
28774;SDS011;15926;51.348;6.596;2022-07-10T02:25:07;4.93;;;1.20;;
28774;SDS011;15926;51.348;6.596;2022-07-10T02:27:33;4.68;;;1.13;;
28774;SDS011;15926;51.348;6.596;2022-07-10T02:29:59;4.95;;;1.15;;
28774;SDS011;15926;51.348;6.596;2022-07-10T02:32:26;6.97;;;1.35;;
28774;SDS011;15926;51.348;6.596;2022-07-10T02:34:52;6.43;;;1.10;;
28774;SDS011;15926;51.348;6.596;2022-07-10T02:37:18;5.22;;;1.00;;
28774;SDS011;15926;51.348;6.596;2022-07-10T02:39:44;3.70;;;1.10;;
28774;SDS011;15926;51.348;6.596;2022-07-10T02:42:10;3.75;;;1.08;;
28774;SDS011;15926;51.348;6.596;2022-07-10T02:44:36;3.10;;;1.20;;
28774;SDS011;15926;51.348;6.596;2022-07-10T02:47:02;3.90;;;1.25;;
28774;SDS011;15926;51.348;6.596;2022-07-10T02:49:28;4.30;;;1.10;;
28774;SDS011;15926;51.348;6.596;2022-07-10T02:51:54;2.42;;;0.90;;
28774;SDS011;15926;51.348;6.596;2022-07-10T02:54:20;8.32;;;1.27;;
28774;SDS011;15926;51.348;6.596;2022-07-10T02:56:46;2.20;;;1.20;;
28774;SDS011;15926;51.348;6.596;2022-07-10T02:59:12;2.55;;;1.00;;
28774;SDS011;15926;51.348;6.596;2022-07-10T03:01:38;2.63;;;1.13;;
28774;SDS011;15926;51.348;6.596;2022-07-10T03:04:04;2.72;;;0.90;;
28774;SDS011;15926;51.348;6.596;2022-07-10T03:06:30;3.55;;;1.20;;
28774;SDS011;15926;51.348;6.596;2022-07-10T03:08:56;3.05;;;1.00;;
28774;SDS011;15926;51.348;6.596;2022-07-10T03:11:22;2.95;;;1.00;;
28774;SDS011;15926;51.348;6.596;2022-07-10T03:13:48;1.50;;;1.00;;
28774;SDS011;15926;51.348;6.596;2022-07-10T03:16:14;2.28;;;1.10;;
28774;SDS011;15926;51.348;6.596;2022-07-10T03:18:40;4.15;;;1.17;;
28774;SDS011;15926;51.348;6.596;2022-07-10T03:21:06;3.20;;;1.40;;
28774;SDS011;15926;51.348;6.596;2022-07-10T03:23:32;2.65;;;1.38;;
28774;SDS011;15926;51.348;6.596;2022-07-10T03:25:58;2.70;;;1.20;;
28774;SDS011;15926;51.348;6.596;2022-07-10T03:28:24;5.07;;;1.70;;
28774;SDS011;15926;51.348;6.596;2022-07-10T03:30:50;12.23;;;2.50;;
28774;SDS011;15926;51.348;6.596;2022-07-10T03:33:16;4.15;;;1.20;;
28774;SDS011;15926;51.348;6.596;2022-07-10T03:35:42;4.43;;;1.70;;
28774;SDS011;15926;51.348;6.596;2022-07-10T03:38:09;3.88;;;1.48;;
28774;SDS011;15926;51.348;6.596;2022-07-10T03:40:35;3.90;;;1.58;;
28774;SDS011;15926;51.348;6.596;2022-07-10T03:43:01;3.60;;;1.38;;
28774;SDS011;15926;51.348;6.596;2022-07-10T03:45:27;5.35;;;1.23;;
28774;SDS011;15926;51.348;6.596;2022-07-10T03:47:53;3.97;;;1.58;;
28774;SDS011;15926;51.348;6.596;2022-07-10T03:50:19;3.75;;;1.27;;
28774;SDS011;15926;51.348;6.596;2022-07-10T03:52:45;3.20;;;1.58;;
28774;SDS011;15926;51.348;6.596;2022-07-10T03:55:11;5.57;;;1.45;;
28774;SDS011;15926;51.348;6.596;2022-07-10T03:57:37;5.10;;;1.58;;
28774;SDS011;15926;51.348;6.596;2022-07-10T04:00:28;2.63;;;1.48;;
28774;SDS011;15926;51.348;6.596;2022-07-10T04:02:57;3.72;;;1.42;;
28774;SDS011;15926;51.348;6.596;2022-07-10T04:05:24;2.60;;;1.60;;
28774;SDS011;15926;51.348;6.596;2022-07-10T04:07:50;9.85;;;2.15;;
28774;SDS011;15926;51.348;6.596;2022-07-10T04:10:16;4.75;;;1.70;;
28774;SDS011;15926;51.348;6.596;2022-07-10T04:12:43;6.43;;;1.73;;
28774;SDS011;15926;51.348;6.596;2022-07-10T04:15:09;7.32;;;1.83;;
28774;SDS011;15926;51.348;6.596;2022-07-10T04:17:35;5.80;;;2.00;;
28774;SDS011;15926;51.348;6.596;2022-07-10T04:20:01;3.08;;;1.45;;
28774;SDS011;15926;51.348;6.596;2022-07-10T04:22:27;2.72;;;1.60;;
28774;SDS011;15926;51.348;6.596;2022-07-10T04:24:53;2.30;;;1.40;;
28774;SDS011;15926;51.348;6.596;2022-07-10T04:27:19;5.32;;;2.22;;
28774;SDS011;15926;51.348;6.596;2022-07-10T04:29:46;5.13;;;2.10;;
28774;SDS011;15926;51.348;6.596;2022-07-10T04:32:12;2.83;;;2.00;;
28774;SDS011;15926;51.348;6.596;2022-07-10T04:34:38;4.43;;;1.88;;
28774;SDS011;15926;51.348;6.596;2022-07-10T04:37:05;6.68;;;1.83;;
28774;SDS011;15926;51.348;6.596;2022-07-10T04:39:32;4.22;;;1.45;;
28774;SDS011;15926;51.348;6.596;2022-07-10T04:41:58;7.00;;;2.47;;
28774;SDS011;15926;51.348;6.596;2022-07-10T04:44:24;4.55;;;2.30;;
28774;SDS011;15926;51.348;6.596;2022-07-10T04:46:50;7.57;;;2.10;;
28774;SDS011;15926;51.348;6.596;2022-07-10T04:49:16;5.93;;;2.20;;
28774;SDS011;15926;51.348;6.596;2022-07-10T04:51:42;4.15;;;1.98;;
28774;SDS011;15926;51.348;6.596;2022-07-10T04:54:08;5.28;;;2.20;;
28774;SDS011;15926;51.348;6.596;2022-07-10T04:56:34;6.38;;;2.25;;
28774;SDS011;15926;51.348;6.596;2022-07-10T04:59:00;5.00;;;2.03;;
28774;SDS011;15926;51.348;6.596;2022-07-10T05:01:27;5.38;;;1.85;;
28774;SDS011;15926;51.348;6.596;2022-07-10T05:03:53;7.00;;;2.03;;
28774;SDS011;15926;51.348;6.596;2022-07-10T05:06:19;11.52;;;2.50;;
28774;SDS011;15926;51.348;6.596;2022-07-10T05:08:45;3.83;;;1.77;;
28774;SDS011;15926;51.348;6.596;2022-07-10T05:11:11;8.52;;;2.20;;
28774;SDS011;15926;51.348;6.596;2022-07-10T05:13:37;7.10;;;2.20;;
28774;SDS011;15926;51.348;6.596;2022-07-10T05:16:06;6.05;;;2.15;;
28774;SDS011;15926;51.348;6.596;2022-07-10T05:18:32;6.93;;;1.90;;
28774;SDS011;15926;51.348;6.596;2022-07-10T05:20:58;8.75;;;2.72;;
28774;SDS011;15926;51.348;6.596;2022-07-10T05:23:24;3.70;;;2.10;;
28774;SDS011;15926;51.348;6.596;2022-07-10T05:25:50;3.05;;;1.88;;
28774;SDS011;15926;51.348;6.596;2022-07-10T05:28:17;4.03;;;1.40;;
28774;SDS011;15926;51.348;6.596;2022-07-10T05:30:43;3.85;;;1.65;;
28774;SDS011;15926;51.348;6.596;2022-07-10T05:33:09;4.47;;;1.58;;
28774;SDS011;15926;51.348;6.596;2022-07-10T05:35:35;10.93;;;1.90;;
28774;SDS011;15926;51.348;6.596;2022-07-10T05:38:01;5.40;;;1.80;;
28774;SDS011;15926;51.348;6.596;2022-07-10T05:40:27;5.00;;;1.95;;
28774;SDS011;15926;51.348;6.596;2022-07-10T05:42:53;5.88;;;2.33;;
28774;SDS011;15926;51.348;6.596;2022-07-10T05:45:19;5.82;;;2.15;;
28774;SDS011;15926;51.348;6.596;2022-07-10T05:47:45;3.10;;;1.80;;
28774;SDS011;15926;51.348;6.596;2022-07-10T05:50:11;6.03;;;2.03;;
28774;SDS011;15926;51.348;6.596;2022-07-10T05:52:37;7.70;;;2.33;;
28774;SDS011;15926;51.348;6.596;2022-07-10T05:55:04;1.90;;;1.25;;
28774;SDS011;15926;51.348;6.596;2022-07-10T05:57:30;3.05;;;1.77;;
28774;SDS011;15926;51.348;6.596;2022-07-10T05:59:56;5.22;;;1.83;;
28774;SDS011;15926;51.348;6.596;2022-07-10T06:02:22;2.58;;;1.45;;
28774;SDS011;15926;51.348;6.596;2022-07-10T06:04:49;3.35;;;1.92;;
28774;SDS011;15926;51.348;6.596;2022-07-10T06:07:15;4.95;;;1.75;;
28774;SDS011;15926;51.348;6.596;2022-07-10T06:09:41;5.75;;;1.63;;
28774;SDS011;15926;51.348;6.596;2022-07-10T06:12:07;4.30;;;1.65;;
28774;SDS011;15926;51.348;6.596;2022-07-10T06:14:34;8.77;;;1.98;;
28774;SDS011;15926;51.348;6.596;2022-07-10T06:17:00;5.20;;;1.52;;
28774;SDS011;15926;51.348;6.596;2022-07-10T06:19:26;6.05;;;2.03;;
28774;SDS011;15926;51.348;6.596;2022-07-10T06:21:52;3.42;;;1.77;;
28774;SDS011;15926;51.348;6.596;2022-07-10T06:24:37;3.92;;;1.90;;
28774;SDS011;15926;51.348;6.596;2022-07-10T06:27:04;4.38;;;1.55;;
28774;SDS011;15926;51.348;6.596;2022-07-10T06:29:30;5.95;;;2.00;;
28774;SDS011;15926;51.348;6.596;2022-07-10T06:31:56;3.30;;;1.50;;
28774;SDS011;15926;51.348;6.596;2022-07-10T06:34:22;4.78;;;1.52;;
28774;SDS011;15926;51.348;6.596;2022-07-10T06:36:48;3.17;;;1.33;;
28774;SDS011;15926;51.348;6.596;2022-07-10T06:39:14;3.35;;;1.65;;
28774;SDS011;15926;51.348;6.596;2022-07-10T06:41:40;2.10;;;1.33;;
28774;SDS011;15926;51.348;6.596;2022-07-10T06:44:06;4.32;;;2.00;;
28774;SDS011;15926;51.348;6.596;2022-07-10T06:46:32;2.92;;;1.50;;
28774;SDS011;15926;51.348;6.596;2022-07-10T06:48:59;3.38;;;1.50;;
28774;SDS011;15926;51.348;6.596;2022-07-10T06:51:25;8.10;;;1.55;;
28774;SDS011;15926;51.348;6.596;2022-07-10T06:53:51;8.20;;;2.10;;
28774;SDS011;15926;51.348;6.596;2022-07-10T06:56:17;6.13;;;1.52;;
28774;SDS011;15926;51.348;6.596;2022-07-10T06:58:43;5.68;;;1.38;;
28774;SDS011;15926;51.348;6.596;2022-07-10T07:01:09;5.03;;;1.45;;
28774;SDS011;15926;51.348;6.596;2022-07-10T07:03:36;4.40;;;1.50;;
28774;SDS011;15926;51.348;6.596;2022-07-10T07:06:02;4.55;;;1.55;;
28774;SDS011;15926;51.348;6.596;2022-07-10T07:08:31;4.95;;;1.42;;
28774;SDS011;15926;51.348;6.596;2022-07-10T07:10:57;7.15;;;2.03;;
28774;SDS011;15926;51.348;6.596;2022-07-10T07:13:23;4.60;;;1.38;;
28774;SDS011;15926;51.348;6.596;2022-07-10T07:15:49;5.15;;;1.20;;
28774;SDS011;15926;51.348;6.596;2022-07-10T07:18:23;4.75;;;1.45;;
28774;SDS011;15926;51.348;6.596;2022-07-10T07:20:57;3.40;;;1.67;;
28774;SDS011;15926;51.348;6.596;2022-07-10T07:23:42;8.20;;;1.60;;
28774;SDS011;15926;51.348;6.596;2022-07-10T07:26:08;4.80;;;1.10;;
28774;SDS011;15926;51.348;6.596;2022-07-10T07:28:34;3.72;;;1.38;;
28774;SDS011;15926;51.348;6.596;2022-07-10T07:31:00;5.22;;;1.35;;
28774;SDS011;15926;51.348;6.596;2022-07-10T07:33:26;4.90;;;1.38;;
28774;SDS011;15926;51.348;6.596;2022-07-10T07:35:52;6.75;;;1.50;;
28774;SDS011;15926;51.348;6.596;2022-07-10T07:38:18;2.67;;;1.38;;
28774;SDS011;15926;51.348;6.596;2022-07-10T07:40:44;6.10;;;1.67;;
28774;SDS011;15926;51.348;6.596;2022-07-10T07:43:10;6.25;;;1.38;;
28774;SDS011;15926;51.348;6.596;2022-07-10T07:45:36;5.10;;;1.23;;
28774;SDS011;15926;51.348;6.596;2022-07-10T07:48:03;4.10;;;1.40;;
28774;SDS011;15926;51.348;6.596;2022-07-10T07:50:30;7.57;;;1.70;;
28774;SDS011;15926;51.348;6.596;2022-07-10T07:52:57;3.97;;;1.40;;
28774;SDS011;15926;51.348;6.596;2022-07-10T07:55:23;4.40;;;1.35;;
28774;SDS011;15926;51.348;6.596;2022-07-10T07:57:53;3.10;;;1.30;;
28774;SDS011;15926;51.348;6.596;2022-07-10T08:00:19;3.35;;;1.65;;
28774;SDS011;15926;51.348;6.596;2022-07-10T08:02:47;3.75;;;1.60;;
28774;SDS011;15926;51.348;6.596;2022-07-10T08:05:13;5.05;;;1.20;;
28774;SDS011;15926;51.348;6.596;2022-07-10T08:07:40;2.13;;;1.45;;
28774;SDS011;15926;51.348;6.596;2022-07-10T08:10:16;3.78;;;1.60;;
28774;SDS011;15926;51.348;6.596;2022-07-10T08:12:43;5.28;;;1.10;;
28774;SDS011;15926;51.348;6.596;2022-07-10T08:15:11;7.53;;;1.50;;
28774;SDS011;15926;51.348;6.596;2022-07-10T08:17:37;6.93;;;1.33;;
28774;SDS011;15926;51.348;6.596;2022-07-10T08:20:04;6.47;;;1.35;;
28774;SDS011;15926;51.348;6.596;2022-07-10T08:22:30;4.82;;;1.50;;
28774;SDS011;15926;51.348;6.596;2022-07-10T08:24:56;5.38;;;1.48;;
28774;SDS011;15926;51.348;6.596;2022-07-10T08:27:23;10.80;;;1.58;;
28774;SDS011;15926;51.348;6.596;2022-07-10T08:29:49;7.55;;;1.33;;
28774;SDS011;15926;51.348;6.596;2022-07-10T08:32:15;7.03;;;1.58;;
28774;SDS011;15926;51.348;6.596;2022-07-10T08:34:41;3.38;;;1.05;;
28774;SDS011;15926;51.348;6.596;2022-07-10T08:37:07;5.10;;;1.27;;
28774;SDS011;15926;51.348;6.596;2022-07-10T08:39:33;2.83;;;1.23;;
28774;SDS011;15926;51.348;6.596;2022-07-10T08:41:59;3.65;;;1.30;;
28774;SDS011;15926;51.348;6.596;2022-07-10T08:44:26;3.97;;;1.45;;
28774;SDS011;15926;51.348;6.596;2022-07-10T08:46:52;5.00;;;1.55;;
28774;SDS011;15926;51.348;6.596;2022-07-10T08:49:18;6.22;;;1.25;;
28774;SDS011;15926;51.348;6.596;2022-07-10T08:54:17;5.78;;;1.10;;
28774;SDS011;15926;51.348;6.596;2022-07-10T08:56:44;6.57;;;1.60;;
28774;SDS011;15926;51.348;6.596;2022-07-10T08:59:11;6.65;;;1.33;;
28774;SDS011;15926;51.348;6.596;2022-07-10T09:01:38;4.70;;;1.35;;
28774;SDS011;15926;51.348;6.596;2022-07-10T09:04:04;4.18;;;1.30;;
28774;SDS011;15926;51.348;6.596;2022-07-10T09:06:30;4.07;;;1.40;;
28774;SDS011;15926;51.348;6.596;2022-07-10T09:09:03;5.13;;;1.60;;
28774;SDS011;15926;51.348;6.596;2022-07-10T09:11:30;7.50;;;1.80;;
28774;SDS011;15926;51.348;6.596;2022-07-10T09:13:57;5.18;;;1.70;;
28774;SDS011;15926;51.348;6.596;2022-07-10T09:16:27;4.28;;;1.80;;
28774;SDS011;15926;51.348;6.596;2022-07-10T09:18:54;12.60;;;2.20;;
28774;SDS011;15926;51.348;6.596;2022-07-10T09:21:20;5.07;;;1.98;;
28774;SDS011;15926;51.348;6.596;2022-07-10T09:23:47;6.43;;;2.08;;
28774;SDS011;15926;51.348;6.596;2022-07-10T09:26:13;4.10;;;2.05;;
28774;SDS011;15926;51.348;6.596;2022-07-10T09:28:39;6.82;;;1.98;;
28774;SDS011;15926;51.348;6.596;2022-07-10T09:31:05;4.95;;;1.90;;
28774;SDS011;15926;51.348;6.596;2022-07-10T09:33:31;3.78;;;1.70;;
28774;SDS011;15926;51.348;6.596;2022-07-10T09:41:14;4.20;;;1.33;;
28774;SDS011;15926;51.348;6.596;2022-07-10T09:46:12;2.75;;;1.10;;
28774;SDS011;15926;51.348;6.596;2022-07-10T09:48:38;4.05;;;1.25;;
28774;SDS011;15926;51.348;6.596;2022-07-10T09:51:06;3.25;;;1.27;;
28774;SDS011;15926;51.348;6.596;2022-07-10T09:53:37;3.22;;;1.38;;
28774;SDS011;15926;51.348;6.596;2022-07-10T09:56:07;4.13;;;1.00;;
28774;SDS011;15926;51.348;6.596;2022-07-10T09:58:34;4.38;;;1.20;;
28774;SDS011;15926;51.348;6.596;2022-07-10T10:01:03;1.38;;;1.00;;
28774;SDS011;15926;51.348;6.596;2022-07-10T10:03:39;2.67;;;1.05;;
28774;SDS011;15926;51.348;6.596;2022-07-10T10:06:10;1.23;;;1.13;;
28774;SDS011;15926;51.348;6.596;2022-07-10T10:11:15;3.15;;;0.93;;
28774;SDS011;15926;51.348;6.596;2022-07-10T10:13:44;1.63;;;1.00;;
28774;SDS011;15926;51.348;6.596;2022-07-10T10:16:10;1.70;;;0.85;;
28774;SDS011;15926;51.348;6.596;2022-07-10T10:18:37;3.10;;;1.00;;
28774;SDS011;15926;51.348;6.596;2022-07-10T10:21:26;2.15;;;1.23;;
28774;SDS011;15926;51.348;6.596;2022-07-10T10:23:53;4.47;;;1.02;;
28774;SDS011;15926;51.348;6.596;2022-07-10T10:26:20;2.20;;;0.98;;
28774;SDS011;15926;51.348;6.596;2022-07-10T10:28:46;1.33;;;0.80;;
28774;SDS011;15926;51.348;6.596;2022-07-10T10:31:13;1.80;;;1.10;;
28774;SDS011;15926;51.348;6.596;2022-07-10T10:36:07;1.60;;;1.13;;
28774;SDS011;15926;51.348;6.596;2022-07-10T10:41:28;1.20;;;1.00;;
28774;SDS011;15926;51.348;6.596;2022-07-10T10:44:42;2.53;;;1.10;;
28774;SDS011;15926;51.348;6.596;2022-07-10T10:49:15;2.72;;;0.85;;
28774;SDS011;15926;51.348;6.596;2022-07-10T10:57:17;2.30;;;1.00;;
28774;SDS011;15926;51.348;6.596;2022-07-10T10:59:53;4.75;;;1.30;;
28774;SDS011;15926;51.348;6.596;2022-07-10T11:02:28;3.85;;;1.35;;
28774;SDS011;15926;51.348;6.596;2022-07-10T11:07:51;3.28;;;1.40;;
28774;SDS011;15926;51.348;6.596;2022-07-10T11:10:34;4.18;;;1.23;;
28774;SDS011;15926;51.348;6.596;2022-07-10T11:15:29;2.85;;;1.52;;
28774;SDS011;15926;51.348;6.596;2022-07-10T11:17:57;2.22;;;0.90;;
28774;SDS011;15926;51.348;6.596;2022-07-10T11:20:24;3.83;;;1.08;;
28774;SDS011;15926;51.348;6.596;2022-07-10T11:28:07;1.65;;;1.55;;
28774;SDS011;15926;51.348;6.596;2022-07-10T11:30:44;2.47;;;1.20;;
28774;SDS011;15926;51.348;6.596;2022-07-10T11:33:10;3.45;;;1.33;;
28774;SDS011;15926;51.348;6.596;2022-07-10T11:35:38;2.60;;;1.20;;
28774;SDS011;15926;51.348;6.596;2022-07-10T11:38:05;3.10;;;1.10;;
28774;SDS011;15926;51.348;6.596;2022-07-10T11:40:35;4.88;;;1.77;;
28774;SDS011;15926;51.348;6.596;2022-07-10T11:43:01;2.33;;;1.25;;
28774;SDS011;15926;51.348;6.596;2022-07-10T11:47:58;3.25;;;1.27;;
28774;SDS011;15926;51.348;6.596;2022-07-10T11:50:24;3.05;;;1.35;;
28774;SDS011;15926;51.348;6.596;2022-07-10T11:52:51;6.68;;;1.45;;
28774;SDS011;15926;51.348;6.596;2022-07-10T11:55:21;3.78;;;1.15;;
28774;SDS011;15926;51.348;6.596;2022-07-10T11:57:47;4.53;;;1.38;;
28774;SDS011;15926;51.348;6.596;2022-07-10T12:00:23;3.28;;;1.50;;
28774;SDS011;15926;51.348;6.596;2022-07-10T12:02:53;5.90;;;1.30;;
28774;SDS011;15926;51.348;6.596;2022-07-10T12:05:32;4.40;;;2.05;;
28774;SDS011;15926;51.348;6.596;2022-07-10T12:07:58;4.80;;;1.60;;
28774;SDS011;15926;51.348;6.596;2022-07-10T12:10:28;3.60;;;1.20;;
28774;SDS011;15926;51.348;6.596;2022-07-10T12:13:02;8.13;;;1.35;;
28774;SDS011;15926;51.348;6.596;2022-07-10T12:15:35;4.43;;;1.38;;
28774;SDS011;15926;51.348;6.596;2022-07-10T12:18:03;5.28;;;1.63;;
28774;SDS011;15926;51.348;6.596;2022-07-10T12:20:29;6.90;;;1.70;;
28774;SDS011;15926;51.348;6.596;2022-07-10T12:22:55;6.28;;;1.50;;
28774;SDS011;15926;51.348;6.596;2022-07-10T12:25:21;6.43;;;1.67;;
28774;SDS011;15926;51.348;6.596;2022-07-10T12:27:47;8.13;;;2.05;;
28774;SDS011;15926;51.348;6.596;2022-07-10T12:30:13;3.50;;;1.52;;
28774;SDS011;15926;51.348;6.596;2022-07-10T12:32:40;4.28;;;1.73;;
28774;SDS011;15926;51.348;6.596;2022-07-10T12:35:06;3.97;;;1.95;;
28774;SDS011;15926;51.348;6.596;2022-07-10T12:37:46;2.03;;;1.15;;
28774;SDS011;15926;51.348;6.596;2022-07-10T12:40:29;3.92;;;1.60;;
28774;SDS011;15926;51.348;6.596;2022-07-10T12:43:02;1.35;;;1.15;;
28774;SDS011;15926;51.348;6.596;2022-07-10T12:45:28;3.10;;;1.35;;
28774;SDS011;15926;51.348;6.596;2022-07-10T12:47:54;4.40;;;1.80;;
28774;SDS011;15926;51.348;6.596;2022-07-10T12:50:20;3.95;;;1.58;;
28774;SDS011;15926;51.348;6.596;2022-07-10T12:52:50;3.65;;;1.40;;
28774;SDS011;15926;51.348;6.596;2022-07-10T12:55:36;3.47;;;1.27;;
28774;SDS011;15926;51.348;6.596;2022-07-10T12:58:06;1.20;;;1.08;;
28774;SDS011;15926;51.348;6.596;2022-07-10T13:00:34;3.13;;;1.13;;
28774;SDS011;15926;51.348;6.596;2022-07-10T13:03:02;3.53;;;1.33;;
28774;SDS011;15926;51.348;6.596;2022-07-10T13:05:29;3.35;;;1.15;;
28774;SDS011;15926;51.348;6.596;2022-07-10T13:10:36;4.25;;;1.52;;
28774;SDS011;15926;51.348;6.596;2022-07-10T13:13:03;0.93;;;0.93;;
28774;SDS011;15926;51.348;6.596;2022-07-10T13:15:29;3.58;;;1.40;;
28774;SDS011;15926;51.348;6.596;2022-07-10T13:17:56;4.20;;;1.00;;
28774;SDS011;15926;51.348;6.596;2022-07-10T13:20:22;2.75;;;1.00;;
28774;SDS011;15926;51.348;6.596;2022-07-10T13:22:48;3.33;;;1.23;;
28774;SDS011;15926;51.348;6.596;2022-07-10T13:25:14;3.83;;;1.05;;
28774;SDS011;15926;51.348;6.596;2022-07-10T13:27:40;2.78;;;0.90;;
28774;SDS011;15926;51.348;6.596;2022-07-10T13:30:07;2.70;;;0.80;;
28774;SDS011;15926;51.348;6.596;2022-07-10T13:32:33;3.03;;;1.30;;
28774;SDS011;15926;51.348;6.596;2022-07-10T13:34:59;5.07;;;1.73;;
28774;SDS011;15926;51.348;6.596;2022-07-10T13:37:25;3.15;;;1.02;;
28774;SDS011;15926;51.348;6.596;2022-07-10T13:39:52;4.15;;;1.15;;
28774;SDS011;15926;51.348;6.596;2022-07-10T13:42:18;1.90;;;0.90;;
28774;SDS011;15926;51.348;6.596;2022-07-10T13:44:44;1.23;;;0.70;;
28774;SDS011;15926;51.348;6.596;2022-07-10T13:47:10;1.40;;;1.10;;
28774;SDS011;15926;51.348;6.596;2022-07-10T13:49:36;1.88;;;0.60;;
28774;SDS011;15926;51.348;6.596;2022-07-10T13:52:02;1.10;;;0.55;;
28774;SDS011;15926;51.348;6.596;2022-07-10T13:54:28;3.78;;;0.80;;
28774;SDS011;15926;51.348;6.596;2022-07-10T13:56:54;4.35;;;0.93;;
28774;SDS011;15926;51.348;6.596;2022-07-10T13:59:20;2.15;;;1.05;;
28774;SDS011;15926;51.348;6.596;2022-07-10T14:01:46;4.90;;;1.30;;
28774;SDS011;15926;51.348;6.596;2022-07-10T14:04:12;4.65;;;0.80;;
28774;SDS011;15926;51.348;6.596;2022-07-10T14:06:38;0.80;;;0.80;;
28774;SDS011;15926;51.348;6.596;2022-07-10T14:09:04;3.33;;;0.82;;
28774;SDS011;15926;51.348;6.596;2022-07-10T14:11:31;3.10;;;1.08;;
28774;SDS011;15926;51.348;6.596;2022-07-10T14:13:57;2.65;;;0.68;;
28774;SDS011;15926;51.348;6.596;2022-07-10T14:16:23;2.28;;;0.80;;
28774;SDS011;15926;51.348;6.596;2022-07-10T14:18:49;2.83;;;0.93;;
28774;SDS011;15926;51.348;6.596;2022-07-10T14:21:19;2.78;;;0.75;;
28774;SDS011;15926;51.348;6.596;2022-07-10T14:23:45;1.85;;;0.90;;
28774;SDS011;15926;51.348;6.596;2022-07-10T14:26:11;2.40;;;1.00;;
28774;SDS011;15926;51.348;6.596;2022-07-10T14:28:38;3.20;;;1.00;;
28774;SDS011;15926;51.348;6.596;2022-07-10T14:31:05;2.15;;;1.02;;
28774;SDS011;15926;51.348;6.596;2022-07-10T14:33:31;2.92;;;1.00;;
28774;SDS011;15926;51.348;6.596;2022-07-10T14:35:57;2.67;;;0.95;;
28774;SDS011;15926;51.348;6.596;2022-07-10T14:38:24;1.33;;;0.80;;
28774;SDS011;15926;51.348;6.596;2022-07-10T14:40:49;1.08;;;0.80;;
28774;SDS011;15926;51.348;6.596;2022-07-10T14:43:19;1.67;;;0.70;;
28774;SDS011;15926;51.348;6.596;2022-07-10T14:45:45;0.93;;;0.80;;
28774;SDS011;15926;51.348;6.596;2022-07-10T14:48:11;1.52;;;1.08;;
28774;SDS011;15926;51.348;6.596;2022-07-10T14:50:38;3.15;;;0.95;;
28774;SDS011;15926;51.348;6.596;2022-07-10T14:53:04;1.35;;;0.98;;
28774;SDS011;15926;51.348;6.596;2022-07-10T14:55:31;0.80;;;0.70;;
28774;SDS011;15926;51.348;6.596;2022-07-10T14:57:57;2.38;;;0.90;;
28774;SDS011;15926;51.348;6.596;2022-07-10T15:00:23;1.83;;;1.02;;
28774;SDS011;15926;51.348;6.596;2022-07-10T15:02:49;2.88;;;0.85;;
28774;SDS011;15926;51.348;6.596;2022-07-10T15:05:15;2.53;;;1.10;;
28774;SDS011;15926;51.348;6.596;2022-07-10T15:07:41;1.70;;;0.98;;
28774;SDS011;15926;51.348;6.596;2022-07-10T15:10:07;2.70;;;0.93;;
28774;SDS011;15926;51.348;6.596;2022-07-10T15:12:34;0.85;;;0.68;;
28774;SDS011;15926;51.348;6.596;2022-07-10T15:15:02;5.28;;;1.10;;
28774;SDS011;15926;51.348;6.596;2022-07-10T15:17:28;3.00;;;0.90;;
28774;SDS011;15926;51.348;6.596;2022-07-10T15:19:54;2.50;;;0.60;;
28774;SDS011;15926;51.348;6.596;2022-07-10T15:22:20;2.53;;;0.93;;
28774;SDS011;15926;51.348;6.596;2022-07-10T15:24:46;2.67;;;0.65;;
28774;SDS011;15926;51.348;6.596;2022-07-10T15:27:14;0.90;;;0.75;;
28774;SDS011;15926;51.348;6.596;2022-07-10T15:29:41;1.48;;;0.73;;
28774;SDS011;15926;51.348;6.596;2022-07-10T15:32:07;1.75;;;0.90;;